»·PEaware :: N415CS KREI-KSAN

N415CS :: KREI-KSAN

FLIGHT INFORMATION

Flight Status: Arrived
Operator: Privately registered:
United States
More flights under this callsign
Pilot: Kyle A. (14988)
Aircraft: CESSNA 182 SKYLANE
(C182)
More flights by this aircraft type
Origin: KREI Redlands Mun
United States
Destination: KSAN San Diego Intl-Lindbergh
United States
More flights between these airports :: More routes between these airports
Route: +PDZ V186 HAILE V66 MZB
File this flight plan on PilotEdge
Remarks: ONTN12
Altitude:
(Current/Filed)
9,000ft
Speed:
(Current/Filed)
135kts
Departed: 04-Dec-17 10:15 AM
Arrived: 04-Dec-17 10:59 AM
Distance/Time
Traveled:
81nm/0:43
Distance/Time
To Go:
Arrived

Flight Plot

Page will automatically refresh every two minutes.


Map Options




Map Legend


Flown Route
Filed Route
Departure Airport
Arrival Airport
Navaid (VOR, NDB)
Fix

Horizontal Profiles

Position Reports

Time Latitude Longitude Heading Altitude Ground
Speed
04-Dec-17 10:07 34.084373 -117.147564 359 1574ft 0kts
04-Dec-17 10:08 34.084376 -117.147564 0 1574ft 0kts
04-Dec-17 10:09 34.084379 -117.147564 0 1574ft 0kts
04-Dec-17 10:10 34.084381 -117.147564 0 1574ft 0kts
04-Dec-17 10:11 34.084384 -117.147564 0 1574ft 0kts
04-Dec-17 10:12 34.084386 -117.147564 0 1574ft 0kts
04-Dec-17 10:13 34.084389 -117.147564 359 1574ft 0kts
04-Dec-17 10:14 34.084392 -117.147564 0 1574ft 0kts
04-Dec-17 10:15 34.084395 -117.147564 0 1574ft 0kts
04-Dec-17 10:16 34.084877 -117.146470 91 1574ft 8kts
04-Dec-17 10:17 34.084876 -117.142037 88 1574ft 16kts
04-Dec-17 10:18 34.084963 -117.139323 9 1574ft 0kts
04-Dec-17 10:19 34.085309 -117.139854 270 1574ft 23kts
04-Dec-17 10:20 34.082527 -117.169261 238 2232ft 125kts
04-Dec-17 10:21 34.062997 -117.199595 240 2882ft 132kts
04-Dec-17 10:22 34.046531 -117.235817 245 3866ft 117kts
04-Dec-17 10:23 34.031291 -117.270697 240 4884ft 119kts
04-Dec-17 10:24 34.001524 -117.272120 169 5889ft 110kts
04-Dec-17 10:25 33.971790 -117.265778 170 6882ft 111kts
04-Dec-17 10:26 33.941411 -117.259270 170 7873ft 107kts
04-Dec-17 10:27 33.910719 -117.252742 171 8926ft 121kts
04-Dec-17 10:28 33.870580 -117.244225 171 9001ft 159kts
04-Dec-17 10:29 33.828356 -117.235220 171 8992ft 150kts
04-Dec-17 10:30 33.786374 -117.226285 171 9003ft 157kts
04-Dec-17 10:31 33.743875 -117.217241 171 8996ft 153kts
04-Dec-17 10:32 33.701965 -117.208325 171 8997ft 152kts
04-Dec-17 10:33 33.660123 -117.199429 171 8996ft 153kts
04-Dec-17 10:34 33.618085 -117.190518 171 9005ft 154kts
04-Dec-17 10:35 33.574789 -117.181343 171 8991ft 158kts
04-Dec-17 10:36 33.532299 -117.172346 171 8981ft 153kts
04-Dec-17 10:37 33.490052 -117.163420 171 8979ft 153kts
04-Dec-17 10:38 33.450222 -117.146441 152 8999ft 154kts
04-Dec-17 10:39 33.412384 -117.121669 152 9000ft 155kts
04-Dec-17 10:40 33.374495 -117.096887 152 8998ft 155kts
04-Dec-17 10:41 33.340845 -117.075069 152 8995ft 154kts
04-Dec-17 10:42 33.302756 -117.050378 152 8810ft 163kts
04-Dec-17 10:43 33.260291 -117.023194 152 8011ft 176kts
04-Dec-17 10:44 33.217826 -116.996420 152 7176ft 170kts
04-Dec-17 10:45 33.175993 -116.970317 151 6368ft 168kts
04-Dec-17 10:46 33.135745 -116.945430 152 6002ft 156kts
04-Dec-17 10:47 33.097318 -116.921896 151 6001ft 154kts
04-Dec-17 10:48 33.059117 -116.898507 152 6002ft 154kts
04-Dec-17 10:49 33.020770 -116.875043 152 6002ft 155kts
04-Dec-17 10:50 32.986064 -116.853832 152 6002ft 161kts
04-Dec-17 10:51 32.945996 -116.829311 152 6001ft 162kts
04-Dec-17 10:52 32.903348 -116.824918 190 6002ft 161kts
04-Dec-17 10:53 32.859105 -116.834933 191 5997ft 162kts
04-Dec-17 10:54 32.816095 -116.844661 191 5994ft 155kts
04-Dec-17 10:55 32.773016 -116.854462 191 6001ft 159kts
04-Dec-17 10:56 32.734854 -116.872106 248 5942ft 153kts
04-Dec-17 10:57 32.719742 -116.921365 251 5355ft 161kts
04-Dec-17 10:58 32.704520 -116.971509 251 4657ft 161kts
04-Dec-17 10:59 32.692066 -117.018786 278 4016ft 129kts
04-Dec-17 11:00 32.701686 -117.058202 293 3408ft 131kts
04-Dec-17 11:01 32.711653 -117.099249 285 1767ft 142kts
04-Dec-17 11:02 32.720744 -117.136843 284 966ft 100kts
04-Dec-17 11:03 32.727133 -117.163055 284 423ft 72kts
04-Dec-17 11:04 32.732077 -117.183547 287 18ft 28kts
04-Dec-17 11:05 32.733128 -117.184240 42 18ft 0kts
04-Dec-17 11:06 32.732557 -117.180737 105 18ft 16kts
04-Dec-17 11:07 32.733480 -117.178202 115 18ft 7kts
04-Dec-17 11:08 32.733258 -117.178078 195 18ft 0kts

Navigation Log

Ident Type
1. KREI Airport
2. PDZ Navaid
3. NIKKL Fix
4. WESIN Fix
5. TANNR Fix
6. DEGLE Fix
7. ROBNN Fix
8. HAILE Fix
9. MZB Navaid
10. KSAN Airport